createdAt,value
2022-11-19T00:01:32.305Z,27.80
2022-11-19T00:03:59.570Z,22.48
2022-11-19T00:06:27.616Z,30.40
2022-11-19T00:08:55.376Z,25.55
2022-11-19T00:11:46.330Z,18.08
2022-11-19T00:14:15.467Z,19.98
2022-11-19T00:16:43.355Z,26.77
2022-11-19T00:19:11.710Z,15.00
2022-11-19T00:21:38.859Z,12.50
2022-11-19T00:24:07.088Z,15.65
2022-11-19T00:26:34.293Z,17.83
2022-11-19T00:29:01.431Z,10.43
2022-11-19T00:31:28.475Z,17.88
2022-11-19T00:33:55.687Z,12.90
2022-11-19T00:36:22.914Z,12.23
2022-11-19T00:38:50.346Z,11.80
2022-11-19T00:41:17.529Z,12.60
2022-11-19T00:43:47.959Z,13.48
2022-11-19T00:46:28.810Z,19.85
2022-11-19T00:48:58.713Z,20.38
2022-11-19T00:51:29.382Z,25.00
2022-11-19T00:53:57.138Z,28.85
2022-11-19T00:56:26.567Z,30.48
2022-11-19T00:58:54.760Z,31.55
2022-11-19T01:01:24.917Z,25.00
2022-11-19T01:03:53.711Z,28.60
2022-11-19T01:06:23.290Z,24.95
2022-11-19T01:08:52.317Z,21.85
2022-11-19T01:11:26.581Z,24.25
2022-11-19T01:13:54.568Z,25.67
2022-11-19T01:16:33.481Z,28.33
2022-11-19T01:19:01.269Z,31.10
2022-11-19T01:21:31.565Z,33.80
2022-11-19T01:23:59.952Z,33.28
2022-11-19T01:26:28.178Z,27.20
2022-11-19T01:28:56.085Z,27.02
2022-11-19T01:31:28.542Z,20.98
2022-11-19T01:33:56.468Z,27.02
2022-11-19T01:36:27.754Z,18.67
2022-11-19T01:38:56.134Z,20.38
2022-11-19T01:41:30.321Z,16.23
2022-11-19T01:44:07.233Z,17.85
2022-11-19T01:46:37.643Z,15.98
2022-11-19T01:49:05.947Z,21.70
2022-11-19T01:51:43.390Z,21.17
2022-11-19T01:54:45.372Z,18.88
2022-11-19T01:57:16.333Z,22.10
2022-11-19T01:59:46.314Z,19.80
2022-11-19T02:02:14.181Z,25.27
2022-11-19T02:04:42.172Z,23.83
2022-11-19T02:07:11.222Z,25.00
2022-11-19T02:09:39.117Z,19.55
2022-11-19T02:12:39.270Z,28.75
2022-11-19T02:15:19.894Z,20.60
2022-11-19T02:18:00.417Z,14.93
2022-11-19T02:21:01.564Z,24.83
2022-11-19T02:24:21.040Z,22.42
2022-11-19T02:27:30.001Z,20.83
2022-11-19T02:30:05.374Z,19.95
2022-11-19T02:33:09.105Z,19.65
2022-11-19T02:35:44.826Z,24.95
2022-11-19T02:38:23.719Z,22.23
2022-11-19T02:41:35.114Z,23.63
2022-11-19T02:44:51.967Z,24.45
2022-11-19T02:47:25.896Z,23.35
2022-11-19T02:49:59.285Z,18.95
2022-11-19T02:52:28.092Z,19.67
2022-11-19T02:54:55.179Z,16.13
2022-11-19T02:57:22.374Z,16.95
2022-11-19T03:00:23.124Z,14.30
2022-11-19T03:03:26.382Z,8.30
2022-11-19T03:06:00.148Z,8.80
2022-11-19T03:08:28.083Z,8.80
2022-11-19T03:11:21.230Z,12.38
2022-11-19T03:14:27.299Z,9.25
2022-11-19T03:17:34.016Z,9.90
2022-11-19T03:20:37.872Z,9.40
2022-11-19T03:23:43.290Z,9.27
2022-11-19T03:26:33.502Z,8.80
2022-11-19T03:29:06.935Z,15.10
2022-11-19T03:31:34.933Z,12.18
2022-11-19T03:34:14.065Z,11.73
2022-11-19T03:36:43.028Z,10.93
2022-11-19T03:39:15.358Z,11.82
2022-11-19T03:41:45.520Z,11.25
2022-11-19T03:44:30.901Z,12.93
2022-11-19T03:47:04.523Z,11.15
2022-11-19T03:49:39.994Z,13.15
2022-11-19T03:52:12.663Z,11.45
2022-11-19T03:54:40.613Z,20.23
2022-11-19T03:57:12.183Z,13.23
2022-11-19T03:59:39.716Z,10.10
2022-11-19T04:02:10.039Z,9.52
2022-11-19T04:04:38.401Z,12.48
2022-11-19T04:07:13.703Z,10.50
2022-11-19T04:09:41.990Z,10.73
2022-11-19T04:12:19.997Z,12.23
2022-11-19T04:14:47.817Z,10.27
2022-11-19T04:17:16.916Z,17.15
2022-11-19T04:19:44.563Z,11.23
2022-11-19T04:22:11.938Z,11.57
2022-11-19T04:24:39.117Z,14.10
2022-11-19T04:27:06.337Z,11.02
2022-11-19T04:29:33.502Z,10.30
2022-11-19T04:32:00.621Z,11.85
2022-11-19T04:34:27.692Z,11.48
2022-11-19T04:36:54.851Z,9.70
2022-11-19T04:39:22.132Z,11.13
2022-11-19T04:41:49.507Z,14.88
2022-11-19T04:44:16.623Z,23.00
2022-11-19T04:46:44.016Z,21.85
2022-11-19T04:49:11.086Z,12.75
2022-11-19T04:51:38.240Z,23.10
2022-11-19T04:54:08.018Z,17.52
2022-11-19T04:56:36.484Z,12.68
2022-11-19T04:59:04.346Z,14.53
2022-11-19T05:01:31.711Z,10.93
2022-11-19T05:03:59.157Z,14.10
2022-11-19T05:06:26.315Z,11.55
2022-11-19T05:08:53.542Z,12.13
2022-11-19T05:11:20.636Z,16.30
2022-11-19T05:13:47.719Z,19.25
2022-11-19T05:16:14.911Z,18.83
2022-11-19T05:18:42.002Z,19.38
2022-11-19T05:21:09.111Z,14.75
2022-11-19T05:23:36.331Z,17.45
2022-11-19T05:26:03.471Z,13.30
2022-11-19T05:28:38.703Z,14.77
2022-11-19T05:31:07.725Z,14.38
2022-11-19T05:33:35.009Z,18.48
2022-11-19T05:36:03.106Z,15.48
2022-11-19T05:38:30.358Z,14.20
2022-11-19T05:40:57.475Z,14.88
2022-11-19T05:43:24.645Z,17.80
2022-11-19T05:45:51.794Z,15.52
2022-11-19T05:48:18.834Z,14.90
2022-11-19T05:50:46.017Z,19.00
2022-11-19T05:53:13.187Z,17.83
2022-11-19T05:55:40.299Z,21.08
2022-11-19T05:58:07.419Z,26.08
2022-11-19T06:00:34.561Z,14.68
2022-11-19T06:03:01.777Z,16.48
2022-11-19T06:05:29.226Z,19.23
2022-11-19T06:07:56.446Z,14.70
2022-11-19T06:10:23.580Z,16.33
2022-11-19T06:12:50.750Z,20.80
2022-11-19T06:15:17.905Z,21.52
2022-11-19T06:17:45.174Z,23.63
2022-11-19T06:20:12.486Z,22.17
2022-11-19T06:22:39.642Z,22.70
2022-11-19T06:25:07.377Z,20.45
2022-11-19T06:27:34.708Z,17.88
2022-11-19T06:30:02.114Z,19.00
2022-11-19T06:32:29.322Z,17.98
2022-11-19T06:34:56.459Z,13.40
2022-11-19T06:37:23.915Z,18.10
2022-11-19T06:39:51.074Z,17.52
2022-11-19T06:42:36.455Z,18.92
2022-11-19T06:45:13.816Z,18.83
2022-11-19T06:47:42.379Z,15.93
2022-11-19T06:50:10.634Z,15.48
2022-11-19T06:52:38.015Z,19.70
2022-11-19T06:55:05.625Z,10.43
2022-11-19T06:57:32.779Z,10.45
2022-11-19T07:00:00.034Z,9.70
2022-11-19T07:02:27.194Z,10.63
2022-11-19T07:04:54.390Z,7.55
2022-11-19T07:07:21.567Z,7.85
2022-11-19T07:09:48.750Z,8.02
2022-11-19T07:12:15.888Z,12.13
2022-11-19T07:14:43.196Z,10.73
2022-11-19T07:17:10.360Z,8.05
2022-11-19T07:19:37.579Z,7.60
2022-11-19T07:22:04.738Z,11.93
2022-11-19T07:24:31.990Z,16.60
2022-11-19T07:26:59.118Z,12.32
2022-11-19T07:29:26.443Z,7.90
2022-11-19T07:31:53.594Z,12.68
2022-11-19T07:34:20.988Z,10.25
2022-11-19T07:36:49.538Z,12.27
2022-11-19T07:39:17.375Z,13.02
2022-11-19T07:42:03.620Z,11.70
2022-11-19T07:44:33.598Z,8.27
2022-11-19T07:47:00.788Z,9.48
2022-11-19T07:49:28.008Z,4.85
2022-11-19T07:51:55.232Z,5.28
2022-11-19T07:54:22.379Z,5.22
2022-11-19T07:56:49.539Z,4.15
2022-11-19T07:59:17.627Z,7.30
2022-11-19T08:01:44.995Z,2.85
2022-11-19T08:04:12.294Z,5.35
2022-11-19T08:06:39.472Z,4.80
2022-11-19T08:09:06.661Z,3.92
2022-11-19T08:11:34.099Z,3.20
2022-11-19T08:14:01.715Z,5.47
2022-11-19T08:16:47.567Z,4.10
2022-11-19T08:19:16.222Z,4.65
2022-11-19T08:21:46.288Z,3.50
2022-11-19T08:24:15.642Z,3.38
2022-11-19T08:26:43.337Z,3.30
2022-11-19T08:29:16.462Z,6.45
2022-11-19T08:31:47.385Z,3.25
2022-11-19T08:34:16.251Z,3.20
2022-11-19T08:36:43.864Z,3.17
2022-11-19T08:39:11.408Z,2.83
2022-11-19T08:41:57.454Z,3.90
2022-11-19T08:44:24.743Z,5.45
2022-11-19T08:46:51.925Z,4.10
2022-11-19T08:49:19.190Z,3.25
2022-11-19T08:51:46.442Z,4.32
2022-11-19T08:54:13.666Z,4.10
2022-11-19T08:56:40.886Z,4.35
2022-11-19T08:59:08.287Z,4.97
2022-11-19T09:01:35.453Z,2.90
2022-11-19T09:04:02.759Z,5.32
2022-11-19T09:06:29.897Z,2.88
2022-11-19T09:08:57.810Z,3.45
2022-11-19T09:11:25.044Z,3.03
2022-11-19T09:13:52.303Z,3.50
2022-11-19T09:16:19.446Z,9.63
2022-11-19T09:18:46.552Z,5.60
2022-11-19T09:21:14.178Z,4.03
2022-11-19T09:23:42.106Z,7.45
2022-11-19T09:26:16.601Z,6.63
2022-11-19T09:28:44.658Z,4.25
2022-11-19T09:31:18.305Z,2.88
2022-11-19T09:33:49.684Z,1.92
2022-11-19T09:36:18.936Z,6.85
2022-11-19T09:41:42.836Z,8.55
2022-11-19T09:44:19.418Z,11.73
2022-11-19T09:47:23.502Z,3.25
2022-11-19T09:50:19.234Z,7.40
2022-11-19T09:53:08.731Z,3.22
2022-11-19T09:55:40.191Z,7.47
2022-11-19T09:58:30.646Z,3.28
2022-11-19T10:00:59.085Z,3.83
2022-11-19T10:03:32.943Z,10.80
2022-11-19T10:06:19.213Z,4.20
2022-11-19T10:09:44.309Z,11.25
2022-11-19T10:12:33.429Z,6.07
2022-11-19T10:18:06.585Z,3.75
2022-11-19T10:21:28.972Z,2.95
2022-11-19T10:24:20.573Z,6.25
2022-11-19T10:27:04.382Z,10.00
2022-11-19T10:29:38.460Z,6.25
2022-11-19T10:32:39.677Z,4.82
2022-11-19T10:35:16.965Z,2.80
2022-11-19T10:38:06.651Z,4.57
2022-11-19T10:40:46.239Z,3.55
2022-11-19T10:43:58.746Z,4.40
2022-11-19T10:46:27.109Z,2.25
2022-11-19T10:49:03.865Z,5.82
2022-11-19T10:51:39.207Z,2.47
2022-11-19T10:54:22.018Z,2.25
2022-11-19T10:56:50.364Z,4.68
2022-11-19T10:59:27.667Z,4.82
2022-11-19T11:02:13.669Z,5.03
2022-11-19T11:05:06.606Z,3.88
2022-11-19T11:07:58.604Z,4.93
2022-11-19T11:10:44.805Z,2.13
2022-11-19T11:13:48.310Z,4.13
2022-11-19T11:16:41.259Z,3.53
2022-11-19T11:19:21.239Z,2.08
2022-11-19T11:21:53.969Z,3.28
2022-11-19T11:24:29.682Z,2.35
2022-11-19T11:27:32.994Z,1.67
2022-11-19T11:30:12.213Z,3.33
2022-11-19T11:32:41.014Z,1.92
2022-11-19T11:35:43.576Z,3.17
2022-11-19T11:38:10.815Z,1.75
2022-11-19T11:40:38.216Z,1.77
2022-11-19T11:43:05.400Z,3.03
2022-11-19T11:45:36.189Z,3.85
2022-11-19T11:48:21.190Z,1.63
2022-11-19T11:50:48.527Z,3.13
2022-11-19T11:53:27.881Z,2.97
2022-11-19T11:56:01.781Z,2.90
2022-11-19T11:58:34.164Z,2.83
2022-11-19T12:01:15.916Z,5.28
2022-11-19T12:03:59.396Z,2.58
2022-11-19T12:06:38.100Z,3.75
2022-11-19T12:09:27.119Z,4.03
2022-11-19T12:14:51.364Z,4.70
2022-11-19T12:18:00.350Z,4.85
2022-11-19T12:23:16.486Z,2.20
2022-11-19T12:26:20.875Z,3.03
2022-11-19T12:29:03.758Z,3.05
2022-11-19T12:32:14.320Z,1.90
2022-11-19T12:34:59.870Z,2.33
2022-11-19T12:37:50.616Z,2.80
2022-11-19T12:40:40.354Z,1.90
2022-11-19T12:43:49.122Z,3.08
2022-11-19T12:46:55.575Z,10.93
2022-11-19T12:49:52.780Z,2.22
2022-11-19T12:52:34.957Z,3.80
2022-11-19T12:55:29.941Z,4.55
2022-11-19T12:58:43.523Z,3.38
2022-11-19T13:01:20.467Z,3.40
2022-11-19T13:03:56.443Z,3.30
2022-11-19T13:06:42.272Z,3.78
2022-11-19T13:09:35.936Z,2.25
2022-11-19T13:12:08.471Z,1.80
2022-11-19T13:14:40.459Z,2.10
2022-11-19T13:17:39.854Z,2.17
2022-11-19T13:20:36.931Z,3.55
2022-11-19T13:23:05.634Z,3.63
2022-11-19T13:25:45.754Z,4.32
2022-11-19T13:28:50.381Z,2.03
2022-11-19T13:32:23.134Z,12.20
2022-11-19T13:35:03.393Z,4.47
2022-11-19T13:37:44.332Z,4.03
2022-11-19T13:40:20.787Z,2.92
2022-11-19T13:46:18.743Z,4.05
2022-11-19T13:49:10.824Z,2.38
2022-11-19T13:51:45.705Z,4.75
2022-11-19T13:54:29.135Z,7.95
2022-11-19T13:56:57.605Z,4.50
2022-11-19T13:59:33.490Z,3.87
2022-11-19T14:02:22.031Z,4.50
2022-11-19T14:05:28.235Z,6.18
2022-11-19T14:08:35.171Z,5.30
2022-11-19T14:11:48.332Z,3.33
2022-11-19T14:14:54.602Z,4.35
2022-11-19T14:18:06.959Z,5.22
2022-11-19T14:21:02.002Z,3.38
2022-11-19T14:23:59.502Z,5.28
2022-11-19T14:26:41.932Z,3.13
2022-11-19T14:29:18.379Z,4.13
2022-11-19T14:32:04.656Z,3.90
2022-11-19T14:34:43.790Z,2.78
2022-11-19T14:37:37.203Z,3.25
2022-11-19T14:40:20.529Z,3.88
2022-11-19T14:43:18.235Z,3.60
2022-11-19T14:46:04.100Z,6.57
2022-11-19T14:48:39.805Z,5.53
2022-11-19T14:51:29.097Z,2.70
2022-11-19T14:56:46.865Z,4.10
2022-11-19T14:59:35.115Z,2.78
2022-11-19T15:02:27.795Z,5.33
2022-11-19T15:05:13.887Z,11.90
2022-11-19T15:07:55.652Z,6.00
2022-11-19T15:10:30.218Z,2.67
2022-11-19T15:13:22.627Z,8.20
2022-11-19T15:15:54.153Z,5.70
2022-11-19T15:18:39.626Z,3.17
2022-11-19T15:22:00.165Z,6.25
2022-11-19T15:24:56.552Z,6.25
2022-11-19T15:27:59.675Z,6.20
2022-11-19T15:31:17.026Z,2.88
2022-11-19T15:34:09.678Z,5.47
2022-11-19T15:36:43.151Z,3.20
2022-11-19T15:39:22.418Z,3.13
2022-11-19T15:42:00.859Z,5.22
2022-11-19T15:44:53.667Z,2.37
2022-11-19T15:47:30.844Z,4.35
2022-11-19T15:49:59.305Z,3.80
2022-11-19T15:52:31.901Z,2.70
2022-11-19T15:55:30.087Z,6.43
2022-11-19T15:58:10.315Z,3.20
2022-11-19T16:00:49.360Z,4.30
2022-11-19T16:03:17.338Z,7.65
2022-11-19T16:06:09.492Z,4.85
2022-11-19T16:08:37.699Z,5.28
2022-11-19T16:11:24.117Z,6.75
2022-11-19T16:14:13.480Z,7.25
2022-11-19T16:16:59.593Z,4.72
2022-11-19T16:19:26.817Z,5.50
2022-11-19T16:22:00.085Z,7.82
2022-11-19T16:24:47.948Z,22.20
2022-11-19T16:27:24.742Z,6.60
2022-11-19T16:29:52.162Z,10.02
2022-11-19T16:32:22.792Z,8.43
2022-11-19T16:34:50.012Z,10.43
2022-11-19T16:37:21.133Z,7.35
2022-11-19T16:39:51.527Z,4.78
2022-11-19T16:42:26.748Z,5.60
2022-11-19T16:45:03.685Z,7.72
2022-11-19T16:47:32.837Z,35.88
2022-11-19T16:50:31.441Z,16.80
2022-11-19T16:53:00.573Z,8.98
2022-11-19T16:58:09.154Z,9.57
2022-11-19T17:00:37.281Z,10.75
2022-11-19T17:03:20.570Z,9.05
2022-11-19T17:05:51.466Z,8.07
2022-11-19T17:08:31.260Z,11.85
2022-11-19T17:11:40.328Z,9.07
2022-11-19T17:17:40.007Z,8.23
2022-11-19T17:20:26.989Z,15.88
2022-11-19T17:22:56.143Z,6.05
2022-11-19T17:25:23.856Z,8.05
2022-11-19T17:27:56.926Z,15.52
2022-11-19T17:30:30.396Z,15.02
2022-11-19T17:33:01.800Z,13.00
2022-11-19T17:35:47.078Z,10.95
2022-11-19T17:38:29.853Z,16.00
2022-11-19T17:40:59.963Z,19.90
2022-11-19T17:43:50.893Z,20.20
2022-11-19T17:46:19.374Z,18.92
2022-11-19T17:48:48.392Z,16.60
2022-11-19T17:51:21.863Z,17.50
2022-11-19T17:53:52.702Z,5.25
2022-11-19T17:56:23.900Z,4.82
2022-11-19T17:58:51.384Z,4.55
2022-11-19T18:01:19.146Z,4.75
2022-11-19T18:03:47.506Z,3.60
2022-11-19T18:06:16.781Z,3.85
2022-11-19T18:11:13.559Z,3.08
2022-11-19T18:13:42.232Z,3.58
2022-11-19T18:16:41.977Z,6.18
2022-11-19T18:19:27.926Z,7.05
2022-11-19T18:21:55.608Z,4.82
2022-11-19T18:24:23.356Z,6.43
2022-11-19T18:26:50.505Z,11.50
2022-11-19T18:29:17.761Z,11.77
2022-11-19T18:31:48.765Z,10.30
2022-11-19T18:34:22.168Z,12.25
2022-11-19T18:36:50.136Z,14.23
2022-11-19T18:39:17.347Z,14.15
2022-11-19T18:41:44.575Z,14.02
2022-11-19T18:44:35.335Z,6.55
2022-11-19T18:47:09.956Z,11.68
2022-11-19T18:49:37.544Z,13.18
2022-11-19T18:52:08.269Z,14.00
2022-11-19T18:54:36.308Z,20.55
2022-11-19T18:57:03.541Z,7.55
2022-11-19T18:59:30.753Z,7.93
2022-11-19T19:01:58.962Z,8.10
2022-11-19T19:04:26.597Z,7.82
2022-11-19T19:06:54.335Z,8.73
2022-11-19T19:09:22.116Z,13.75
2022-11-19T19:12:13.329Z,9.85
2022-11-19T19:14:43.263Z,7.93
2022-11-19T19:17:12.063Z,11.65
2022-11-19T19:19:40.215Z,9.57
2022-11-19T19:22:09.468Z,10.50
2022-11-19T19:27:05.477Z,7.97
2022-11-19T19:29:32.717Z,7.32
2022-11-19T19:32:00.112Z,6.22
2022-11-19T19:34:29.175Z,10.88
2022-11-19T19:36:56.778Z,11.30
2022-11-19T19:39:24.780Z,11.50
2022-11-19T19:41:52.845Z,15.90
2022-11-19T19:44:20.102Z,26.80
2022-11-19T19:46:48.294Z,21.88
2022-11-19T19:49:15.618Z,16.58
2022-11-19T19:51:42.908Z,11.55
2022-11-19T19:54:10.256Z,8.43
2022-11-19T19:56:38.092Z,10.40
2022-11-19T19:59:05.457Z,8.50
2022-11-19T20:01:35.496Z,7.22
2022-11-19T20:04:09.957Z,7.70
2022-11-19T20:06:41.693Z,14.65
2022-11-19T20:09:09.613Z,17.40
2022-11-19T20:11:37.759Z,10.48
2022-11-19T20:14:05.760Z,12.55
2022-11-19T20:16:34.541Z,9.65
2022-11-19T20:19:02.037Z,13.23
2022-11-19T20:21:33.234Z,16.65
2022-11-19T20:24:00.807Z,15.13
2022-11-19T20:26:30.889Z,15.93
2022-11-19T20:29:01.643Z,16.15
2022-11-19T20:31:30.060Z,18.92
2022-11-19T20:34:00.246Z,10.93
2022-11-19T20:36:31.113Z,12.35
2022-11-19T20:38:58.562Z,13.00
2022-11-19T20:41:46.015Z,15.52
2022-11-19T20:44:22.021Z,9.75
2022-11-19T20:47:01.702Z,10.48
2022-11-19T20:49:35.056Z,7.82
2022-11-19T20:52:02.947Z,9.38
2022-11-19T20:54:30.414Z,7.85
2022-11-19T20:56:57.986Z,13.73
2022-11-19T20:59:26.652Z,9.35
2022-11-19T21:01:55.807Z,11.00
2022-11-19T21:04:24.693Z,8.77
2022-11-19T21:06:53.273Z,7.07
2022-11-19T21:09:21.375Z,7.82
2022-11-19T21:11:48.907Z,6.70
2022-11-19T21:14:16.036Z,11.18
2022-11-19T21:16:43.350Z,10.65
2022-11-19T21:19:11.148Z,10.98
2022-11-19T21:21:38.711Z,9.30
2022-11-19T21:24:06.671Z,13.68
2022-11-19T21:26:33.902Z,10.63
2022-11-19T21:29:01.604Z,10.65
2022-11-19T21:31:38.078Z,8.85
2022-11-19T21:34:14.464Z,9.65
2022-11-19T21:36:43.247Z,11.85
2022-11-19T21:39:11.468Z,8.82
2022-11-19T21:41:38.857Z,6.90
2022-11-19T21:44:06.406Z,8.02
2022-11-19T21:46:34.228Z,8.88
2022-11-19T21:49:01.943Z,7.95
2022-11-19T21:51:29.148Z,7.07
2022-11-19T21:53:57.781Z,17.60
2022-11-19T21:56:26.859Z,9.43
2022-11-19T21:58:54.002Z,9.20
2022-11-19T22:01:21.775Z,8.68
2022-11-19T22:03:48.880Z,17.23
2022-11-19T22:06:16.105Z,9.68
2022-11-19T22:08:43.521Z,13.48
2022-11-19T22:11:31.071Z,13.05
2022-11-19T22:14:08.168Z,14.15
2022-11-19T22:16:38.691Z,10.93
2022-11-19T22:19:06.187Z,13.98
2022-11-19T22:21:34.109Z,10.85
2022-11-19T22:24:01.223Z,10.35
2022-11-19T22:26:28.448Z,13.52
2022-11-19T22:28:56.065Z,10.60
2022-11-19T22:31:24.609Z,15.98
2022-11-19T22:33:53.081Z,9.10
2022-11-19T22:36:21.882Z,17.17
2022-11-19T22:38:50.521Z,12.30
2022-11-19T22:41:20.498Z,14.40
2022-11-19T22:43:48.329Z,15.82
2022-11-19T22:46:15.982Z,10.93
2022-11-19T22:48:43.291Z,10.35
2022-11-19T22:51:22.602Z,13.65
2022-11-19T22:53:51.784Z,11.55
2022-11-19T22:58:52.135Z,22.85
2022-11-19T23:01:31.897Z,24.00
2022-11-19T23:04:05.193Z,19.58
2022-11-19T23:06:36.428Z,19.05
2022-11-19T23:09:05.280Z,17.58
2022-11-19T23:11:51.636Z,26.27
2022-11-19T23:14:19.475Z,22.48
2022-11-19T23:16:46.845Z,16.58
2022-11-19T23:19:14.561Z,14.32
2022-11-19T23:21:41.614Z,14.68
2022-11-19T23:24:09.915Z,20.50
2022-11-19T23:26:37.566Z,12.93
2022-11-19T23:29:05.020Z,10.45
2022-11-19T23:31:38.256Z,21.38
2022-11-19T23:34:06.273Z,14.82
2022-11-19T23:36:39.415Z,19.25
2022-11-19T23:39:14.037Z,17.10
2022-11-19T23:41:41.560Z,15.25
2022-11-19T23:44:08.860Z,11.57
2022-11-19T23:46:36.027Z,13.20
2022-11-19T23:49:04.970Z,10.00
2022-11-19T23:51:35.880Z,13.45
2022-11-19T23:54:04.316Z,12.25
2022-11-19T23:56:33.494Z,13.93
2022-11-19T23:59:02.218Z,13.88
